createdAt,value
2022-09-07T00:00:42.641Z,74.10
2022-09-07T00:03:09.655Z,74.30
2022-09-07T00:05:43.993Z,74.30
2022-09-07T00:08:11.667Z,75.00
2022-09-07T00:10:38.894Z,74.10
2022-09-07T00:13:07.046Z,73.90
2022-09-07T00:15:34.203Z,73.80
2022-09-07T00:18:00.915Z,73.70
2022-09-07T00:20:27.631Z,73.80
2022-09-07T00:22:54.387Z,73.90
2022-09-07T00:25:21.117Z,73.80
2022-09-07T00:27:47.871Z,73.90
2022-09-07T00:30:14.610Z,73.90
2022-09-07T00:32:41.371Z,73.70
2022-09-07T00:35:08.473Z,74.30
2022-09-07T00:37:35.233Z,73.40
2022-09-07T00:40:02.393Z,73.30
2022-09-07T00:42:29.197Z,73.30
2022-09-07T00:45:12.134Z,73.40
2022-09-07T00:47:45.538Z,73.80
2022-09-07T00:50:19.294Z,74.00
2022-09-07T00:52:50.759Z,74.30
2022-09-07T00:55:19.109Z,74.50
2022-09-07T00:57:50.125Z,74.60
2022-09-07T01:00:17.408Z,74.60
2022-09-07T01:02:45.511Z,74.50
2022-09-07T01:05:46.271Z,74.60
2022-09-07T01:08:14.075Z,74.80
2022-09-07T01:10:40.824Z,74.80
2022-09-07T01:13:08.464Z,74.80
2022-09-07T01:16:02.520Z,74.90
2022-09-07T01:18:42.794Z,74.80
2022-09-07T01:21:22.109Z,74.90
2022-09-07T01:24:17.603Z,75.00
2022-09-07T01:27:18.018Z,75.20
2022-09-07T01:30:08.122Z,75.30
2022-09-07T01:32:49.879Z,75.40
2022-09-07T01:35:43.865Z,75.60
2022-09-07T01:38:31.992Z,75.60
2022-09-07T01:41:07.777Z,75.90
2022-09-07T01:43:41.558Z,75.90
2022-09-07T01:46:34.412Z,76.00
2022-09-07T01:49:08.454Z,76.90
2022-09-07T01:51:41.021Z,76.20
2022-09-07T01:54:42.048Z,76.40
2022-09-07T01:57:18.746Z,76.50
2022-09-07T01:59:52.433Z,76.40
2022-09-07T02:02:30.175Z,76.50
2022-09-07T02:05:14.570Z,76.60
2022-09-07T02:08:24.354Z,76.50
2022-09-07T02:11:20.171Z,76.70
2022-09-07T02:13:52.270Z,76.50
2022-09-07T02:16:25.755Z,76.40
2022-09-07T02:18:56.747Z,76.50
2022-09-07T02:21:41.620Z,76.50
2022-09-07T02:24:31.124Z,76.60
2022-09-07T02:26:59.591Z,76.70
2022-09-07T02:29:30.787Z,76.70
2022-09-07T02:31:57.853Z,76.70
2022-09-07T02:34:24.795Z,76.80
2022-09-07T02:36:53.736Z,76.90
2022-09-07T02:39:20.635Z,77.00
2022-09-07T02:41:47.501Z,77.00
2022-09-07T02:44:21.120Z,77.00
2022-09-07T02:47:13.106Z,77.00
2022-09-07T02:49:49.347Z,77.00
2022-09-07T02:52:44.333Z,76.90
2022-09-07T02:55:34.450Z,77.00
2022-09-07T02:58:10.127Z,77.00
2022-09-07T03:01:02.235Z,77.00
2022-09-07T03:03:49.278Z,77.20
2022-09-07T03:06:26.509Z,77.20
2022-09-07T03:08:56.225Z,77.20
2022-09-07T03:11:23.606Z,77.20
2022-09-07T03:13:50.354Z,77.20
2022-09-07T03:16:17.472Z,77.30
2022-09-07T03:18:44.555Z,77.40
2022-09-07T03:21:11.644Z,77.50
2022-09-07T03:23:38.867Z,77.50
2022-09-07T03:26:05.935Z,77.60
2022-09-07T03:28:32.691Z,77.60
2022-09-07T03:31:02.096Z,77.60
2022-09-07T03:33:28.979Z,77.70
2022-09-07T03:36:02.391Z,77.60
2022-09-07T03:38:30.808Z,77.60
2022-09-07T03:41:02.674Z,77.60
2022-09-07T03:43:31.021Z,77.60
2022-09-07T03:46:03.397Z,77.60
2022-09-07T03:48:32.037Z,77.70
2022-09-07T03:51:01.708Z,77.70
2022-09-07T03:53:34.053Z,77.70
2022-09-07T03:56:03.974Z,77.80
2022-09-07T03:58:32.687Z,77.80
2022-09-07T04:01:04.648Z,77.70
2022-09-07T04:03:31.487Z,77.70
2022-09-07T04:06:02.000Z,77.60
2022-09-07T04:08:34.400Z,77.50
2022-09-07T04:11:03.117Z,77.40
2022-09-07T04:13:30.742Z,77.30
2022-09-07T04:15:57.814Z,77.20
2022-09-07T04:18:25.364Z,77.00
2022-09-07T04:20:52.411Z,77.00
2022-09-07T04:23:19.757Z,77.10
2022-09-07T04:25:51.041Z,76.90
2022-09-07T04:28:20.499Z,76.90
2022-09-07T04:30:47.448Z,76.80
2022-09-07T04:33:15.433Z,76.80
2022-09-07T04:35:43.587Z,76.70
2022-09-07T04:38:14.237Z,76.70
2022-09-07T04:40:41.356Z,76.70
2022-09-07T04:43:09.559Z,76.70
2022-09-07T04:45:37.407Z,76.80
2022-09-07T04:48:05.136Z,76.80
2022-09-07T04:50:32.666Z,76.80
2022-09-07T04:52:59.439Z,76.80
2022-09-07T04:55:26.273Z,76.60
2022-09-07T04:57:53.013Z,76.50
2022-09-07T05:00:19.776Z,76.60
2022-09-07T05:02:46.755Z,76.50
2022-09-07T05:05:13.752Z,76.50
2022-09-07T05:07:40.590Z,76.60
2022-09-07T05:10:07.663Z,76.60
2022-09-07T05:12:34.439Z,76.50
2022-09-07T05:15:01.650Z,76.50
2022-09-07T05:17:31.005Z,76.40
2022-09-07T05:19:58.157Z,76.30
2022-09-07T05:22:27.583Z,76.40
2022-09-07T05:24:54.363Z,76.40
2022-09-07T05:27:21.111Z,76.50
2022-09-07T05:30:04.477Z,76.40
2022-09-07T05:32:32.084Z,76.30
2022-09-07T05:34:58.901Z,76.20
2022-09-07T05:37:25.606Z,76.30
2022-09-07T05:39:55.035Z,76.40
2022-09-07T05:42:22.724Z,76.40
2022-09-07T05:44:49.446Z,76.50
2022-09-07T05:47:16.323Z,76.60
2022-09-07T05:49:43.141Z,76.60
2022-09-07T05:52:10.592Z,76.70
2022-09-07T05:54:37.409Z,76.70
2022-09-07T05:57:04.408Z,76.70
2022-09-07T05:59:31.244Z,76.60
2022-09-07T06:01:58.049Z,76.60
2022-09-07T06:04:24.918Z,76.60
2022-09-07T06:07:20.132Z,76.60
2022-09-07T06:12:25.800Z,76.60
2022-09-07T06:14:52.536Z,76.70
2022-09-07T06:17:19.692Z,76.60
2022-09-07T06:19:46.411Z,76.80
2022-09-07T06:22:13.336Z,76.80
2022-09-07T06:24:40.057Z,76.90
2022-09-07T06:27:06.812Z,77.60
2022-09-07T06:29:33.546Z,77.00
2022-09-07T06:34:47.043Z,77.10
2022-09-07T06:37:14.042Z,77.10
2022-09-07T06:39:40.844Z,77.20
2022-09-07T06:42:07.615Z,77.20
2022-09-07T06:44:34.681Z,77.20
2022-09-07T06:49:33.230Z,77.30
2022-09-07T06:51:59.998Z,77.30
2022-09-07T06:57:13.619Z,77.60
2022-09-07T06:59:40.415Z,77.80
2022-09-07T07:02:09.505Z,77.90
2022-09-07T07:04:40.628Z,78.10
2022-09-07T07:07:14.343Z,78.10
2022-09-07T07:09:42.016Z,78.10
2022-09-07T07:12:10.068Z,78.40
2022-09-07T07:14:39.719Z,78.50
2022-09-07T07:17:10.242Z,78.50
2022-09-07T07:19:37.003Z,78.50
2022-09-07T07:22:42.958Z,78.50
2022-09-07T07:24:50.449Z,78.60
2022-09-07T07:27:17.575Z,78.50
2022-09-07T07:29:44.454Z,78.40
2022-09-07T07:32:11.178Z,78.20
2022-09-07T07:34:38.067Z,78.00
2022-09-07T07:37:04.850Z,77.80
2022-09-07T07:42:18.479Z,78.20
2022-09-07T07:44:45.276Z,77.10
2022-09-07T07:47:12.067Z,76.80
2022-09-07T07:49:38.733Z,76.50
2022-09-07T07:54:53.089Z,76.20
2022-09-07T07:57:19.853Z,75.80
2022-09-07T07:59:46.560Z,75.80
2022-09-07T08:02:17.270Z,75.70
2022-09-07T08:04:44.264Z,75.30
2022-09-07T08:07:12.466Z,75.10
2022-09-07T08:09:40.741Z,75.10
2022-09-07T08:12:08.475Z,74.90
2022-09-07T08:14:40.612Z,74.70
2022-09-07T08:17:08.712Z,74.40
2022-09-07T08:19:36.027Z,74.10
2022-09-07T08:22:03.863Z,73.90
2022-09-07T08:24:31.976Z,73.80
2022-09-07T08:26:58.888Z,73.70
2022-09-07T08:29:25.568Z,73.40
2022-09-07T08:31:52.378Z,73.20
2022-09-07T08:34:19.272Z,72.70
2022-09-07T08:36:46.015Z,72.60
2022-09-07T08:39:13.081Z,73.40
2022-09-07T08:41:55.123Z,72.50
2022-09-07T08:44:27.636Z,72.30
2022-09-07T08:46:54.440Z,72.60
2022-09-07T08:49:46.515Z,72.70
2022-09-07T08:52:21.487Z,71.50
2022-09-07T08:55:00.515Z,71.60
2022-09-07T08:57:31.200Z,71.30
2022-09-07T09:00:13.884Z,71.20
2022-09-07T09:02:44.277Z,70.70
2022-09-07T09:05:35.958Z,70.60
2022-09-07T09:08:18.293Z,70.50
2022-09-07T09:11:29.493Z,70.30
2022-09-07T09:14:10.498Z,70.00
2022-09-07T09:16:43.652Z,69.90
2022-09-07T09:19:41.383Z,69.80
2022-09-07T09:22:15.696Z,69.30
2022-09-07T09:24:55.605Z,69.60
2022-09-07T09:27:22.571Z,69.40
2022-09-07T09:29:49.374Z,69.30
2022-09-07T09:32:39.847Z,69.30
2022-09-07T09:35:28.791Z,69.00
2022-09-07T09:37:57.739Z,68.70
2022-09-07T09:40:36.930Z,69.10
2022-09-07T09:43:18.328Z,69.10
2022-09-07T09:48:40.391Z,68.50
2022-09-07T09:54:00.006Z,68.20
2022-09-07T09:56:43.758Z,68.40
2022-09-07T10:05:36.260Z,66.90
2022-09-07T10:08:15.208Z,66.60
2022-09-07T10:11:15.572Z,66.00
2022-09-07T10:13:55.741Z,65.70
2022-09-07T10:16:39.228Z,65.40
2022-09-07T10:19:06.086Z,65.50
2022-09-07T10:21:33.228Z,65.70
2022-09-07T10:24:00.939Z,65.90
2022-09-07T10:26:33.362Z,66.00
2022-09-07T10:29:14.009Z,66.00
2022-09-07T10:32:19.773Z,66.40
2022-09-07T10:35:22.451Z,65.00
2022-09-07T10:38:04.127Z,66.10
2022-09-07T10:40:58.598Z,65.90
2022-09-07T10:43:47.206Z,65.80
2022-09-07T10:46:59.658Z,65.30
2022-09-07T10:52:39.169Z,65.30
2022-09-07T10:55:35.736Z,65.00
2022-09-07T10:59:01.394Z,64.40
2022-09-07T11:01:26.892Z,64.20
2022-09-07T11:03:53.736Z,63.80
2022-09-07T11:06:27.066Z,63.40
2022-09-07T11:09:30.539Z,62.10
2022-09-07T11:12:21.307Z,61.90
2022-09-07T11:14:56.146Z,62.50
2022-09-07T11:17:26.527Z,62.80
2022-09-07T11:20:08.874Z,62.50
2022-09-07T11:22:43.449Z,60.80
2022-09-07T11:25:31.593Z,60.40
2022-09-07T11:28:22.905Z,60.90
2022-09-07T11:31:04.249Z,60.60
2022-09-07T11:33:37.716Z,59.90
2022-09-07T11:36:16.500Z,60.70
2022-09-07T11:38:51.266Z,61.20
2022-09-07T11:41:22.875Z,60.30
2022-09-07T11:44:21.828Z,59.30
2022-09-07T11:46:53.253Z,60.60
2022-09-07T11:49:25.996Z,60.80
2022-09-07T11:52:05.279Z,60.40
2022-09-07T11:54:45.803Z,60.00
2022-09-07T11:57:15.317Z,59.60
2022-09-07T12:00:00.747Z,59.70
2022-09-07T12:03:00.285Z,58.90
2022-09-07T12:05:48.879Z,58.30
2022-09-07T12:08:31.107Z,58.80
2022-09-07T12:11:08.282Z,57.90
2022-09-07T12:13:50.731Z,58.60
2022-09-07T12:16:36.594Z,58.20
2022-09-07T12:19:19.073Z,58.10
2022-09-07T12:21:55.200Z,56.90
2022-09-07T12:24:42.133Z,57.40
2022-09-07T12:27:10.284Z,57.10
2022-09-07T12:29:45.159Z,57.60
2022-09-07T12:34:59.877Z,58.00
2022-09-07T12:37:26.750Z,57.10
2022-09-07T12:40:28.597Z,56.60
2022-09-07T12:43:13.488Z,56.40
2022-09-07T12:45:40.311Z,56.40
2022-09-07T12:48:15.943Z,57.00
2022-09-07T12:54:32.776Z,56.50
2022-09-07T12:57:29.693Z,56.80
2022-09-07T13:00:20.749Z,56.90
2022-09-07T13:02:57.813Z,56.10
2022-09-07T13:05:30.673Z,56.50
2022-09-07T13:08:08.847Z,56.00
2022-09-07T13:10:43.408Z,56.50
2022-09-07T13:13:16.828Z,56.10
2022-09-07T13:15:48.873Z,55.40
2022-09-07T13:18:28.494Z,55.70
2022-09-07T13:21:07.345Z,56.70
2022-09-07T13:23:38.136Z,56.60
2022-09-07T13:26:09.088Z,55.90
2022-09-07T13:28:58.096Z,55.40
2022-09-07T13:31:48.490Z,55.60
2022-09-07T13:34:54.591Z,55.30
2022-09-07T13:37:26.237Z,55.10
2022-09-07T13:39:58.281Z,55.70
2022-09-07T13:42:31.840Z,56.10
2022-09-07T13:45:05.122Z,56.00
2022-09-07T13:47:35.258Z,55.70
2022-09-07T13:50:36.300Z,55.30
2022-09-07T13:53:12.197Z,54.90
2022-09-07T13:56:01.102Z,55.40
2022-09-07T13:58:37.829Z,55.50
2022-09-07T14:01:21.829Z,55.20
2022-09-07T14:03:52.726Z,55.20
2022-09-07T14:06:22.429Z,55.20
2022-09-07T14:08:58.597Z,55.10
2022-09-07T14:11:49.179Z,55.20
2022-09-07T14:14:20.548Z,54.90
2022-09-07T14:17:00.938Z,55.30
2022-09-07T14:19:41.425Z,55.20
2022-09-07T14:22:18.566Z,55.10
2022-09-07T14:24:55.577Z,55.30
2022-09-07T14:27:41.134Z,55.60
2022-09-07T14:30:25.646Z,55.80
2022-09-07T14:33:03.879Z,56.10
2022-09-07T14:35:34.952Z,55.90
2022-09-07T14:41:15.846Z,54.50
2022-09-07T14:43:56.961Z,55.50
2022-09-07T14:46:25.917Z,54.90
2022-09-07T14:49:02.663Z,55.70
2022-09-07T14:51:36.102Z,56.40
2022-09-07T14:54:06.165Z,55.80
2022-09-07T14:56:41.620Z,54.80
2022-09-07T14:59:38.894Z,53.90
2022-09-07T15:02:26.990Z,53.70
2022-09-07T15:05:18.194Z,53.90
2022-09-07T15:07:54.446Z,53.80
2022-09-07T15:10:21.207Z,53.90
2022-09-07T15:13:22.392Z,54.20
2022-09-07T15:15:57.434Z,55.50
2022-09-07T15:18:47.256Z,54.80
2022-09-07T15:21:14.009Z,54.40
2022-09-07T15:23:40.779Z,54.70
2022-09-07T15:27:02.009Z,54.80
2022-09-07T15:29:13.435Z,54.90
2022-09-07T15:31:43.632Z,54.60
2022-09-07T15:34:13.722Z,54.70
2022-09-07T15:36:44.074Z,54.70
2022-09-07T15:39:22.596Z,54.60
2022-09-07T15:41:51.432Z,54.90
2022-09-07T15:44:22.849Z,55.40
2022-09-07T15:49:40.090Z,55.40
2022-09-07T15:52:09.097Z,55.10
2022-09-07T15:54:39.422Z,54.90
2022-09-07T15:59:53.753Z,55.30
2022-09-07T16:05:08.216Z,55.00
2022-09-07T16:10:21.863Z,55.10
2022-09-07T16:13:10.419Z,54.70
2022-09-07T16:15:36.001Z,54.30
2022-09-07T16:18:03.027Z,55.10
2022-09-07T16:20:32.759Z,54.70
2022-09-07T16:23:16.022Z,55.00
2022-09-07T16:25:54.248Z,54.80
2022-09-07T16:28:20.931Z,54.80
2022-09-07T16:30:48.159Z,54.50
2022-09-07T16:33:15.227Z,55.10
2022-09-07T16:35:42.223Z,54.70
2022-09-07T16:40:55.634Z,54.90
2022-09-07T16:43:22.345Z,55.20
2022-09-07T16:46:04.854Z,54.90
2022-09-07T16:48:34.095Z,55.30
2022-09-07T16:51:02.731Z,55.60
2022-09-07T16:53:31.646Z,55.80
2022-09-07T16:56:02.605Z,56.10
2022-09-07T16:58:38.338Z,56.10
2022-09-07T17:01:11.612Z,55.70
2022-09-07T17:03:39.337Z,55.70
2022-09-07T17:06:08.183Z,55.70
2022-09-07T17:08:36.466Z,56.10
2022-09-07T17:11:12.589Z,55.80
2022-09-07T17:13:40.691Z,56.00
2022-09-07T17:16:10.603Z,56.50
2022-09-07T17:21:24.719Z,56.10
2022-09-07T17:23:55.582Z,56.10
2022-09-07T17:26:26.695Z,56.20
2022-09-07T17:28:56.620Z,56.90
2022-09-07T17:34:19.767Z,56.70
2022-09-07T17:36:46.920Z,57.20
2022-09-07T17:39:15.017Z,57.70
2022-09-07T17:41:43.715Z,58.00
2022-09-07T17:44:10.550Z,58.30
2022-09-07T17:46:37.408Z,58.50
2022-09-07T17:49:05.213Z,58.70
2022-09-07T17:51:32.873Z,58.60
2022-09-07T17:54:09.708Z,59.10
2022-09-07T17:56:37.424Z,59.30
2022-09-07T18:01:51.180Z,59.80
2022-09-07T18:04:17.943Z,59.80
2022-09-07T18:06:44.711Z,60.00
2022-09-07T18:09:13.959Z,60.00
2022-09-07T18:11:47.085Z,60.10
2022-09-07T18:14:15.348Z,60.40
2022-09-07T18:16:44.389Z,60.30
2022-09-07T18:19:12.260Z,60.10
2022-09-07T18:21:41.841Z,60.10
2022-09-07T18:24:14.006Z,60.30
2022-09-07T18:26:41.173Z,60.50
2022-09-07T18:29:25.978Z,60.50
2022-09-07T18:31:54.957Z,60.80
2022-09-07T18:34:22.279Z,60.90
2022-09-07T18:36:49.068Z,61.10
2022-09-07T18:39:15.822Z,61.10
2022-09-07T18:41:42.663Z,61.10
2022-09-07T18:46:56.361Z,61.40
2022-09-07T18:49:23.557Z,61.60
2022-09-07T18:54:38.661Z,61.30
2022-09-07T18:57:06.689Z,60.80
2022-09-07T18:59:34.400Z,60.00
2022-09-07T19:02:04.339Z,59.90
2022-09-07T19:07:20.882Z,60.10
2022-09-07T19:09:48.510Z,60.00
2022-09-07T19:12:15.657Z,60.20
2022-09-07T19:14:42.465Z,60.00
2022-09-07T19:17:11.051Z,60.00
2022-09-07T19:19:39.637Z,59.90
2022-09-07T19:22:06.566Z,59.70
2022-09-07T19:24:33.464Z,59.80
2022-09-07T19:27:01.000Z,59.80
2022-09-07T19:29:28.592Z,59.70
2022-09-07T19:32:04.479Z,60.00
2022-09-07T19:34:33.134Z,59.80
2022-09-07T19:37:00.459Z,59.90
2022-09-07T19:39:27.824Z,60.30
2022-09-07T19:41:54.779Z,60.70
2022-09-07T19:44:21.472Z,60.00
2022-09-07T19:46:48.581Z,59.80
2022-09-07T19:49:15.423Z,59.90
2022-09-07T19:51:42.943Z,59.70
2022-09-07T19:54:11.097Z,59.90
2022-09-07T19:56:39.254Z,60.10
2022-09-07T19:59:06.195Z,60.60
2022-09-07T20:01:33.957Z,60.40
2022-09-07T20:04:10.787Z,60.10
2022-09-07T20:06:39.401Z,60.60
2022-09-07T20:09:07.999Z,60.90
2022-09-07T20:11:35.616Z,61.00
2022-09-07T20:14:02.532Z,61.20
2022-09-07T20:16:29.918Z,61.70
2022-09-07T20:18:57.281Z,62.00
2022-09-07T20:21:25.994Z,62.10
2022-09-07T20:23:52.728Z,62.10
2022-09-07T20:26:21.638Z,61.80
2022-09-07T20:29:05.912Z,62.00
2022-09-07T20:31:41.655Z,62.10
2022-09-07T20:34:09.582Z,62.20
2022-09-07T20:36:36.871Z,62.20
2022-09-07T20:39:06.985Z,62.40
2022-09-07T20:41:34.953Z,62.60
2022-09-07T20:44:03.303Z,62.90
2022-09-07T20:46:31.253Z,63.10
2022-09-07T20:48:58.619Z,63.40
2022-09-07T20:51:25.685Z,63.60
2022-09-07T20:53:52.702Z,63.90
2022-09-07T20:56:26.066Z,64.00
2022-09-07T20:58:57.857Z,64.00
2022-09-07T21:01:24.994Z,63.90
2022-09-07T21:03:54.058Z,63.90
2022-09-07T21:06:22.179Z,64.10
2022-09-07T21:08:49.940Z,64.30
2022-09-07T21:11:24.340Z,64.40
2022-09-07T21:14:07.147Z,64.60
2022-09-07T21:16:34.907Z,64.50
2022-09-07T21:19:02.901Z,64.30
2022-09-07T21:21:37.753Z,64.30
2022-09-07T21:24:06.007Z,64.50
2022-09-07T21:26:33.027Z,64.60
2022-09-07T21:29:01.953Z,64.60
2022-09-07T21:31:31.119Z,64.50
2022-09-07T21:34:00.534Z,64.50
2022-09-07T21:36:28.044Z,64.60
2022-09-07T21:38:55.825Z,64.70
2022-09-07T21:41:24.322Z,64.90
2022-09-07T21:44:00.573Z,65.00
2022-09-07T21:46:29.546Z,65.10
2022-09-07T21:48:58.058Z,65.20
2022-09-07T21:51:26.230Z,66.00
2022-09-07T21:53:58.279Z,65.40
2022-09-07T21:56:25.706Z,65.30
2022-09-07T21:58:56.858Z,65.20
2022-09-07T22:01:25.175Z,64.60
2022-09-07T22:04:03.892Z,65.00
2022-09-07T22:06:32.441Z,65.20
2022-09-07T22:08:59.854Z,65.40
2022-09-07T22:11:28.459Z,65.30
2022-09-07T22:14:01.497Z,65.30
2022-09-07T22:16:28.832Z,65.50
2022-09-07T22:18:55.727Z,65.50
2022-09-07T22:21:28.089Z,65.70
2022-09-07T22:23:57.498Z,65.20
2022-09-07T22:26:26.301Z,65.30
2022-09-07T22:28:53.081Z,65.20
2022-09-07T22:31:28.979Z,65.30
2022-09-07T22:33:57.305Z,65.50
2022-09-07T22:36:26.007Z,65.40
2022-09-07T22:38:54.923Z,65.50
2022-09-07T22:41:25.889Z,65.80
2022-09-07T22:43:52.640Z,65.20
2022-09-07T22:46:22.364Z,65.00
2022-09-07T22:48:49.731Z,65.00
2022-09-07T22:51:17.173Z,64.80
2022-09-07T22:53:44.333Z,65.00
2022-09-07T22:56:17.144Z,65.80
2022-09-07T22:58:52.545Z,66.40
2022-09-07T23:01:20.944Z,67.30
2022-09-07T23:03:48.341Z,67.90
2022-09-07T23:06:30.754Z,68.30
2022-09-07T23:08:58.971Z,68.40
2022-09-07T23:11:26.694Z,68.20
2022-09-07T23:13:58.881Z,68.40
2022-09-07T23:16:28.027Z,68.50
2022-09-07T23:18:55.933Z,68.50
2022-09-07T23:21:22.811Z,68.30
2022-09-07T23:23:54.776Z,68.20
2022-09-07T23:26:23.385Z,68.20
2022-09-07T23:28:54.809Z,68.20
2022-09-07T23:31:23.271Z,67.90
2022-09-07T23:33:50.467Z,68.90
2022-09-07T23:36:18.404Z,68.70
2022-09-07T23:38:46.289Z,69.20
2022-09-07T23:41:14.184Z,69.60
2022-09-07T23:43:41.674Z,69.80
2022-09-07T23:46:09.604Z,70.00
2022-09-07T23:48:36.608Z,70.50
2022-09-07T23:51:03.431Z,70.80
2022-09-07T23:53:30.266Z,71.00
2022-09-07T23:55:57.154Z,71.30
2022-09-07T23:58:24.083Z,71.50
